createdAt,value
2022-10-29T04:45:55.252Z,99.99
2022-10-29T04:46:56.206Z,99.99
2022-10-29T04:47:56.667Z,99.99
2022-10-29T04:48:56.288Z,99.99
2022-10-29T04:49:56.193Z,99.99
2022-10-29T04:50:56.170Z,99.99
2022-10-29T04:51:56.152Z,99.99
2022-10-29T04:52:56.161Z,99.99
2022-10-29T04:53:56.137Z,99.99
2022-10-29T04:54:56.127Z,99.99
2022-10-29T04:55:56.113Z,99.99
2022-10-29T04:56:56.105Z,99.99
2022-10-29T04:57:56.464Z,99.99
2022-10-29T04:58:56.089Z,99.99
2022-10-29T04:59:56.070Z,99.99
2022-10-29T05:01:02.860Z,99.99
2022-10-29T05:01:56.088Z,99.99
2022-10-29T05:02:56.424Z,99.99
2022-10-29T05:03:59.064Z,99.99
2022-10-29T05:04:56.071Z,99.99
2022-10-29T05:05:56.037Z,99.99
2022-10-29T05:06:56.039Z,99.99
2022-10-29T05:07:56.033Z,99.99
2022-10-29T05:08:56.007Z,99.99
2022-10-29T05:09:55.993Z,99.99
2022-10-29T05:10:55.989Z,99.99
2022-10-29T05:11:55.970Z,99.99
2022-10-29T05:12:56.317Z,99.99
2022-10-29T05:13:55.956Z,99.99
2022-10-29T05:14:55.942Z,99.99
2022-10-29T05:15:55.928Z,99.99
2022-10-29T05:16:55.973Z,99.99
2022-10-29T05:17:56.410Z,99.99
2022-10-29T05:18:55.902Z,99.99
2022-10-29T05:19:55.890Z,99.99
2022-10-29T05:20:55.900Z,99.99
2022-10-29T05:21:55.870Z,99.99
2022-10-29T05:22:55.871Z,99.99
2022-10-29T05:23:55.844Z,99.99
2022-10-29T05:24:55.835Z,99.99
2022-10-29T05:25:55.823Z,99.99
2022-10-29T05:26:55.817Z,99.99
2022-10-29T05:27:56.180Z,99.99
2022-10-29T05:28:55.793Z,99.99
2022-10-29T05:29:55.785Z,99.99
2022-10-29T05:30:55.771Z,99.99
2022-10-29T05:31:55.762Z,99.99
2022-10-29T05:32:56.037Z,99.99
2022-10-29T05:33:56.160Z,99.99
2022-10-29T05:34:55.728Z,99.99
2022-10-29T05:35:55.718Z,99.99
2022-10-29T05:36:55.721Z,99.99
2022-10-29T05:37:55.705Z,99.99
2022-10-29T05:38:55.682Z,99.99
2022-10-29T05:39:55.672Z,99.99
2022-10-29T05:40:55.665Z,99.99
2022-10-29T05:41:55.647Z,99.99
2022-10-29T05:42:55.944Z,99.99
2022-10-29T05:43:55.626Z,99.99
2022-10-29T05:44:55.640Z,99.99
2022-10-29T05:45:55.606Z,99.99
2022-10-29T05:46:55.607Z,99.99
2022-10-29T05:47:55.664Z,99.99
2022-10-29T05:48:55.575Z,99.99
2022-10-29T05:49:55.556Z,99.99
2022-10-29T05:50:55.551Z,99.99
2022-10-29T05:51:55.545Z,99.99
2022-10-29T05:52:55.924Z,99.99
2022-10-29T05:53:55.546Z,99.99
2022-10-29T05:54:55.511Z,99.99
2022-10-29T05:55:55.496Z,99.99
2022-10-29T05:56:55.484Z,99.99
2022-10-29T05:57:55.479Z,99.99
2022-10-29T05:58:55.488Z,99.99
2022-10-29T05:59:55.450Z,99.99
2022-10-29T06:00:55.450Z,99.99
2022-10-29T06:01:55.588Z,99.99
2022-10-29T06:02:55.881Z,99.99
2022-10-29T06:03:55.429Z,99.99
2022-10-29T06:04:55.401Z,99.99
2022-10-29T06:05:55.389Z,99.99
2022-10-29T06:06:55.410Z,99.99
2022-10-29T06:07:55.697Z,99.99
2022-10-29T06:08:55.372Z,99.99
2022-10-29T06:09:55.355Z,99.99
2022-10-29T06:10:55.337Z,99.99
2022-10-29T06:11:55.315Z,99.99
2022-10-29T06:12:55.323Z,99.99
2022-10-29T06:13:55.313Z,99.99
2022-10-29T06:14:55.299Z,99.99
2022-10-29T06:15:55.274Z,99.99
2022-10-29T06:16:55.271Z,99.99
2022-10-29T06:17:55.474Z,99.99
2022-10-29T06:18:55.290Z,99.99
2022-10-29T06:19:55.230Z,99.99
2022-10-29T06:20:55.225Z,99.99
2022-10-29T06:21:57.888Z,99.99
2022-10-29T06:22:55.442Z,99.99
2022-10-29T06:23:55.210Z,99.99
2022-10-29T06:24:55.193Z,99.99
2022-10-29T06:25:55.169Z,99.99
2022-10-29T06:26:55.168Z,99.99
2022-10-29T06:27:55.144Z,99.99
2022-10-29T06:28:55.151Z,99.99
2022-10-29T06:29:55.121Z,99.99
2022-10-29T06:30:55.116Z,99.99
2022-10-29T06:31:55.108Z,99.99
2022-10-29T06:32:55.478Z,99.99
2022-10-29T06:33:55.094Z,99.99
2022-10-29T06:34:55.082Z,99.99
2022-10-29T06:35:55.058Z,99.99
2022-10-29T06:36:55.059Z,99.99
2022-10-29T06:37:55.505Z,99.99
2022-10-29T06:38:55.051Z,99.99
2022-10-29T06:39:55.021Z,99.99
2022-10-29T06:40:55.011Z,99.99
2022-10-29T06:41:54.997Z,99.99
2022-10-29T06:42:55.000Z,99.99
2022-10-29T06:43:54.989Z,99.99
2022-10-29T06:44:54.964Z,99.99
2022-10-29T06:45:54.949Z,99.99
2022-10-29T06:46:54.960Z,99.99
2022-10-29T06:47:55.281Z,99.99
2022-10-29T06:48:54.942Z,99.99
2022-10-29T06:49:54.909Z,99.99
2022-10-29T06:50:54.908Z,99.99
2022-10-29T06:51:54.887Z,99.99
2022-10-29T06:52:55.350Z,99.99
2022-10-29T06:53:54.867Z,99.99
2022-10-29T06:54:54.868Z,99.99
2022-10-29T06:55:54.847Z,99.99
2022-10-29T06:56:54.848Z,99.99
2022-10-29T06:57:54.841Z,99.99
2022-10-29T06:58:54.830Z,99.99
2022-10-29T06:59:54.805Z,99.99
2022-10-29T07:00:54.932Z,99.99
2022-10-29T07:01:54.865Z,99.99
2022-10-29T07:02:55.067Z,99.99
2022-10-29T07:03:54.757Z,99.99
2022-10-29T07:04:54.769Z,99.99
2022-10-29T07:05:54.739Z,99.99
2022-10-29T07:06:54.740Z,99.99
2022-10-29T07:07:55.006Z,99.99
2022-10-29T07:08:54.724Z,99.99
2022-10-29T07:09:54.713Z,99.99
2022-10-29T07:10:54.713Z,99.99
2022-10-29T07:11:54.689Z,99.99
2022-10-29T07:12:54.678Z,99.99
2022-10-29T07:13:54.689Z,99.99
2022-10-29T07:14:54.660Z,99.99
2022-10-29T07:15:54.641Z,99.99
2022-10-29T07:16:54.628Z,99.99
2022-10-29T07:17:54.934Z,99.99
2022-10-29T07:18:54.623Z,99.99
2022-10-29T07:19:54.591Z,99.99
2022-10-29T07:20:54.587Z,99.99
2022-10-29T07:21:54.577Z,99.99
2022-10-29T07:22:54.566Z,99.99
2022-10-29T07:23:54.566Z,99.99
2022-10-29T07:24:57.171Z,99.99
2022-10-29T07:25:54.533Z,99.99
2022-10-29T07:26:54.528Z,99.99
2022-10-29T07:27:54.844Z,99.99
2022-10-29T07:28:54.525Z,99.99
2022-10-29T07:29:54.499Z,99.99
2022-10-29T07:30:54.479Z,99.99
2022-10-29T07:31:54.478Z,99.99
2022-10-29T07:32:54.459Z,99.99
2022-10-29T07:33:54.461Z,99.99
2022-10-29T07:34:54.446Z,99.99
2022-10-29T07:35:54.425Z,99.99
2022-10-29T07:36:54.420Z,99.99
2022-10-29T07:37:54.698Z,99.99
2022-10-29T07:38:54.417Z,99.99
2022-10-29T07:39:54.382Z,99.99
2022-10-29T07:40:54.389Z,99.99
2022-10-29T07:41:58.184Z,99.99
2022-10-29T07:42:54.864Z,99.99
2022-10-29T07:43:54.357Z,99.99
2022-10-29T07:44:54.339Z,99.99
2022-10-29T07:45:54.329Z,99.99
2022-10-29T07:46:54.320Z,99.99
2022-10-29T07:47:55.695Z,99.99
2022-10-29T07:48:54.312Z,99.99
2022-10-29T07:49:54.304Z,99.99
2022-10-29T07:50:54.278Z,99.99
2022-10-29T07:51:54.271Z,99.99
2022-10-29T07:52:54.577Z,99.99
2022-10-29T07:53:54.260Z,99.99
2022-10-29T07:54:54.234Z,99.99
2022-10-29T07:55:54.213Z,99.99
2022-10-29T07:56:54.213Z,99.99
2022-10-29T07:57:54.522Z,99.99
2022-10-29T07:58:54.204Z,99.99
2022-10-29T07:59:54.178Z,99.99
2022-10-29T08:00:54.251Z,99.99
2022-10-29T08:01:54.318Z,99.99
2022-10-29T08:02:54.151Z,99.82
2022-10-29T08:03:54.150Z,99.92
2022-10-29T08:04:54.130Z,99.99
2022-10-29T08:05:56.724Z,99.99
2022-10-29T08:06:54.112Z,99.99
2022-10-29T08:07:54.463Z,99.99
2022-10-29T08:08:54.105Z,99.99
2022-10-29T08:09:54.074Z,99.99
2022-10-29T08:10:54.073Z,99.99
2022-10-29T08:11:54.047Z,99.99
2022-10-29T08:12:54.331Z,98.16
2022-10-29T08:13:54.031Z,96.94
2022-10-29T08:14:54.021Z,95.18
2022-10-29T08:15:54.008Z,95.68
2022-10-29T08:16:54.006Z,94.17
2022-10-29T08:17:54.010Z,94.47
2022-10-29T08:18:53.980Z,94.57
2022-10-29T08:19:53.973Z,92.85
2022-10-29T08:20:53.980Z,92.81
2022-10-29T08:21:53.945Z,93.82
2022-10-29T08:22:54.341Z,91.80
2022-10-29T08:23:53.918Z,92.71
2022-10-29T08:24:53.920Z,91.30
2022-10-29T08:25:53.902Z,91.46
2022-10-29T08:26:53.910Z,91.96
2022-10-29T08:28:53.883Z,90.91
2022-10-29T08:29:53.857Z,89.39
2022-10-29T08:30:53.861Z,89.79
2022-10-29T08:31:53.837Z,89.75
2022-10-29T08:32:54.220Z,89.75
2022-10-29T08:33:53.814Z,89.65
2022-10-29T08:34:53.818Z,90.97
2022-10-29T08:35:53.791Z,89.45
2022-10-29T08:36:53.792Z,89.45
2022-10-29T08:37:53.802Z,90.16
2022-10-29T08:38:53.768Z,89.65
2022-10-29T08:39:53.757Z,88.95
2022-10-29T08:40:53.753Z,89.25
2022-10-29T08:41:53.740Z,88.50
2022-10-29T08:42:54.068Z,88.40
2022-10-29T08:43:53.790Z,87.90
2022-10-29T08:44:53.699Z,87.29
2022-10-29T08:45:53.691Z,87.55
2022-10-29T08:46:53.680Z,88.06
2022-10-29T08:47:54.027Z,87.96
2022-10-29T08:48:53.660Z,87.65
2022-10-29T08:49:53.643Z,86.55
2022-10-29T08:50:53.633Z,85.64
2022-10-29T08:51:53.622Z,86.00
2022-10-29T08:53:19.410Z,86.51
2022-10-29T08:54:25.006Z,86.41
2022-10-29T08:54:53.602Z,87.11
2022-10-29T08:55:53.580Z,86.21
2022-10-29T08:56:53.587Z,86.51
2022-10-29T08:57:53.854Z,85.66
2022-10-29T08:58:53.563Z,86.77
2022-10-29T08:59:53.603Z,86.57
2022-10-29T09:00:53.585Z,86.36
2022-10-29T09:01:53.932Z,86.57
2022-10-29T09:02:53.755Z,87.87
2022-10-29T09:03:53.497Z,87.37
2022-10-29T09:04:53.488Z,87.01
2022-10-29T09:05:53.494Z,87.92
2022-10-29T09:06:53.470Z,88.02
2022-10-29T09:07:55.232Z,87.92
2022-10-29T09:08:53.441Z,87.71
2022-10-29T09:09:53.445Z,88.72
2022-10-29T09:10:53.417Z,88.62
2022-10-29T09:11:53.411Z,88.32
2022-10-29T09:12:53.741Z,88.22
2022-10-29T09:13:53.395Z,88.72
2022-10-29T09:14:53.377Z,87.51
2022-10-29T09:15:57.213Z,86.66
2022-10-29T09:16:53.362Z,86.22
2022-10-29T09:17:53.611Z,85.88
2022-10-29T09:18:53.333Z,84.53
2022-10-29T09:19:53.332Z,84.29
2022-10-29T09:20:53.313Z,83.39
2022-10-29T09:21:53.311Z,83.65
2022-10-29T09:22:53.289Z,79.42
2022-10-29T09:23:53.308Z,77.48
2022-10-29T09:24:53.272Z,75.93
2022-10-29T09:25:53.265Z,76.10
2022-10-29T09:26:53.257Z,74.03
2022-10-29T09:27:53.504Z,73.16
2022-10-29T09:28:53.233Z,72.86
2022-10-29T09:29:53.222Z,73.60
2022-10-29T09:30:53.216Z,74.40
2022-10-29T09:31:53.203Z,75.90
2022-10-29T09:32:53.218Z,74.80
2022-10-29T09:33:55.345Z,74.80
2022-10-29T09:34:53.173Z,75.13
2022-10-29T09:35:53.163Z,76.24
2022-10-29T09:36:53.157Z,76.87
2022-10-29T09:37:53.183Z,77.48
2022-10-29T09:38:53.137Z,76.17
2022-10-29T09:39:53.120Z,77.21
2022-10-29T09:40:53.118Z,77.98
2022-10-29T09:41:53.104Z,75.93
2022-10-29T09:42:53.109Z,75.34
2022-10-29T09:43:53.083Z,75.04
2022-10-29T09:44:53.065Z,76.28
2022-10-29T09:45:53.065Z,75.97
2022-10-29T09:46:53.046Z,76.17
2022-10-29T09:47:53.245Z,76.01
2022-10-29T09:48:53.103Z,74.67
2022-10-29T09:49:53.022Z,73.90
2022-10-29T09:50:53.008Z,71.29
2022-10-29T09:51:52.998Z,69.76
2022-10-29T09:52:53.123Z,70.89
2022-10-29T09:53:52.987Z,71.23
2022-10-29T09:54:52.969Z,72.66
2022-10-29T09:55:52.955Z,73.00
2022-10-29T09:56:54.864Z,73.53
2022-10-29T09:57:52.963Z,73.63
2022-10-29T09:58:52.915Z,74.13
2022-10-29T09:59:52.920Z,74.30
2022-10-29T10:00:52.892Z,72.89
2022-10-29T10:01:52.934Z,72.56
2022-10-29T10:02:52.937Z,72.69
2022-10-29T10:03:52.995Z,71.66
2022-10-29T10:04:52.861Z,71.03
2022-10-29T10:05:52.851Z,71.16
2022-10-29T10:06:52.846Z,72.00
2022-10-29T10:07:52.983Z,72.46
2022-10-29T10:08:52.823Z,72.69
2022-10-29T10:09:52.805Z,74.10
2022-10-29T10:10:52.798Z,74.10
2022-10-29T10:11:52.787Z,73.00
2022-10-29T10:12:52.797Z,73.39
2022-10-29T10:13:52.777Z,73.80
2022-10-29T10:14:52.753Z,74.46
2022-10-29T10:15:52.740Z,72.56
2022-10-29T10:16:52.734Z,73.39
2022-10-29T10:17:52.715Z,73.00
2022-10-29T10:18:52.721Z,72.56
2022-10-29T10:19:52.698Z,71.92
2022-10-29T10:20:52.679Z,71.72
2022-10-29T10:21:52.704Z,71.03
2022-10-29T10:22:52.662Z,69.66
2022-10-29T10:23:52.694Z,68.23
2022-10-29T10:24:52.648Z,66.24
2022-10-29T10:25:52.721Z,65.21
2022-10-29T10:26:52.617Z,65.04
2022-10-29T10:27:52.614Z,66.77
2022-10-29T10:28:52.604Z,65.23
2022-10-29T10:29:52.587Z,66.60
2022-10-29T10:30:52.571Z,66.60
2022-10-29T10:31:52.572Z,67.10
2022-10-29T10:32:52.584Z,68.36
2022-10-29T10:33:52.552Z,68.96
2022-10-29T10:34:52.535Z,68.06
2022-10-29T10:35:52.540Z,67.00
2022-10-29T10:36:52.508Z,67.33
2022-10-29T10:37:52.505Z,66.77
2022-10-29T10:38:52.509Z,67.40
2022-10-29T10:39:52.537Z,67.76
2022-10-29T10:40:52.462Z,67.83
2022-10-29T10:41:52.460Z,67.33
2022-10-29T10:42:52.458Z,67.16
2022-10-29T10:43:52.432Z,67.73
2022-10-29T10:44:52.425Z,67.20
2022-10-29T10:45:52.418Z,65.61
2022-10-29T10:46:52.400Z,66.30
2022-10-29T10:47:52.414Z,68.82
2022-10-29T10:48:52.385Z,71.23
2022-10-29T10:49:52.376Z,72.33
2022-10-29T10:50:52.358Z,72.56
2022-10-29T10:51:52.358Z,73.60
2022-10-29T10:52:52.351Z,74.20
2022-10-29T10:53:52.391Z,73.00
2022-10-29T10:54:52.343Z,73.90
2022-10-29T10:55:52.318Z,73.70
2022-10-29T10:56:52.306Z,74.40
2022-10-29T10:57:52.330Z,74.06
2022-10-29T10:58:52.288Z,73.70
2022-10-29T10:59:52.285Z,75.16
2022-10-29T11:00:59.864Z,75.13
2022-10-29T11:01:52.405Z,72.86
2022-10-29T11:02:52.229Z,68.99
2022-10-29T11:03:52.194Z,66.64
2022-10-29T11:04:52.193Z,65.41
2022-10-29T11:05:52.194Z,64.58
2022-10-29T11:06:52.168Z,63.95
2022-10-29T11:07:52.188Z,64.19
2022-10-29T11:08:52.162Z,63.36
2022-10-29T11:09:52.187Z,65.21
2022-10-29T11:10:52.184Z,66.00
2022-10-29T11:11:57.928Z,67.53
2022-10-29T11:12:52.125Z,69.26
2022-10-29T11:13:52.176Z,69.53
2022-10-29T11:14:52.079Z,71.62
2022-10-29T11:15:52.121Z,73.33
2022-10-29T11:16:52.090Z,73.96
2022-10-29T11:17:54.283Z,74.90
2022-10-29T11:18:52.032Z,75.80
2022-10-29T11:19:52.070Z,76.00
2022-10-29T11:20:52.045Z,75.60
2022-10-29T11:21:52.023Z,76.00
2022-10-29T11:22:52.015Z,75.33
2022-10-29T11:23:51.980Z,74.19
2022-10-29T11:24:52.054Z,73.83
2022-10-29T11:25:51.981Z,73.06
2022-10-29T11:26:51.961Z,70.99
2022-10-29T11:27:52.005Z,70.49
2022-10-29T11:28:51.935Z,71.29
2022-10-29T11:29:51.936Z,68.63
2022-10-29T11:30:51.913Z,68.83
2022-10-29T11:31:51.929Z,68.73
2022-10-29T11:32:51.912Z,67.03
2022-10-29T11:33:51.995Z,64.42
2022-10-29T11:34:51.879Z,64.62
2022-10-29T11:35:53.970Z,64.19
2022-10-29T11:36:51.855Z,64.98
2022-10-29T11:37:51.900Z,65.02
2022-10-29T11:38:51.824Z,64.39
2022-10-29T11:39:51.842Z,63.40
2022-10-29T11:40:51.803Z,60.64
2022-10-29T11:41:51.816Z,61.39
2022-10-29T11:42:51.815Z,61.32
2022-10-29T11:43:51.822Z,63.27
2022-10-29T11:44:51.785Z,62.08
2022-10-29T11:45:51.752Z,61.69
2022-10-29T11:46:51.743Z,63.73
2022-10-29T11:47:51.781Z,65.12
2022-10-29T11:48:51.736Z,65.08
2022-10-29T11:49:51.712Z,65.48
2022-10-29T11:50:51.718Z,64.45
2022-10-29T11:51:51.785Z,64.39
2022-10-29T11:52:51.734Z,63.60
2022-10-29T11:53:51.719Z,60.83
2022-10-29T11:54:51.670Z,59.67
2022-10-29T11:55:51.702Z,59.75
2022-10-29T11:56:51.726Z,60.48
2022-10-29T11:57:51.689Z,58.18
2022-10-29T11:58:51.614Z,57.71
2022-10-29T11:59:51.618Z,59.67
2022-10-29T12:00:51.604Z,59.42
2022-10-29T12:01:51.698Z,58.43
2022-10-29T12:02:51.617Z,59.75
2022-10-29T12:03:51.655Z,61.02
2022-10-29T12:04:51.671Z,61.10
2022-10-29T12:05:51.547Z,59.05
2022-10-29T12:06:51.529Z,59.83
2022-10-29T12:07:51.582Z,59.34
2022-10-29T12:08:51.512Z,59.93
2022-10-29T12:09:51.541Z,59.04
2022-10-29T12:10:51.499Z,58.46
2022-10-29T12:11:51.485Z,56.23
2022-10-29T12:12:51.535Z,57.42
2022-10-29T12:13:51.478Z,57.99
2022-10-29T12:14:51.511Z,58.81
2022-10-29T12:15:51.447Z,59.04
2022-10-29T12:16:51.477Z,59.21
2022-10-29T12:17:51.496Z,57.57
2022-10-29T12:18:51.408Z,57.23
2022-10-29T12:19:51.454Z,58.15
2022-10-29T12:20:51.405Z,58.22
2022-10-29T12:21:51.379Z,56.43
2022-10-29T12:22:51.408Z,58.17
2022-10-29T12:23:51.357Z,58.42
2022-10-29T12:24:51.362Z,56.77
2022-10-29T12:25:51.413Z,55.96
2022-10-29T12:26:51.343Z,55.56
2022-10-29T12:27:51.339Z,57.27
2022-10-29T12:28:51.312Z,56.93
2022-10-29T12:29:51.355Z,57.45
2022-10-29T12:30:51.299Z,58.57
2022-10-29T12:31:51.273Z,57.97
2022-10-29T12:32:51.290Z,55.60
2022-10-29T12:33:51.282Z,55.68
2022-10-29T12:34:51.245Z,55.08
2022-10-29T12:35:51.309Z,55.68
2022-10-29T12:36:53.434Z,54.81
2022-10-29T12:37:51.216Z,56.05
2022-10-29T12:38:51.204Z,56.55
2022-10-29T12:39:51.185Z,57.62
2022-10-29T12:40:51.178Z,57.40
2022-10-29T12:41:51.173Z,57.69
2022-10-29T12:42:51.150Z,58.09
2022-10-29T12:43:51.174Z,58.19
2022-10-29T12:44:51.128Z,57.17
2022-10-29T12:46:14.718Z,57.27
2022-10-29T12:46:51.115Z,57.14
2022-10-29T12:47:51.104Z,57.89
2022-10-29T12:48:51.102Z,57.85
2022-10-29T12:49:51.083Z,58.34
2022-10-29T12:50:51.067Z,59.61
2022-10-29T12:51:51.120Z,58.09
2022-10-29T12:52:51.063Z,59.08
2022-10-29T12:53:51.086Z,58.06
2022-10-29T12:54:51.022Z,58.34
2022-10-29T12:55:51.018Z,60.98
2022-10-29T12:56:51.004Z,61.34
2022-10-29T12:57:51.017Z,62.23
2022-10-29T12:58:50.992Z,62.56
2022-10-29T12:59:50.977Z,61.87
2022-10-29T13:00:51.039Z,62.79
2022-10-29T13:02:11.139Z,64.31
2022-10-29T13:02:51.131Z,65.34
2022-10-29T13:03:50.939Z,64.37
2022-10-29T13:04:50.920Z,65.67
2022-10-29T13:05:50.912Z,67.17
2022-10-29T13:06:50.898Z,65.67
2022-10-29T13:07:50.906Z,67.10
2022-10-29T13:08:50.889Z,67.60
2022-10-29T13:09:50.870Z,67.30
2022-10-29T13:10:50.856Z,68.66
2022-10-29T13:11:50.873Z,68.76
2022-10-29T13:12:50.843Z,67.80
2022-10-29T13:13:51.367Z,68.03
2022-10-29T13:14:50.854Z,69.13
2022-10-29T13:15:50.803Z,68.73
2022-10-29T13:16:50.802Z,70.12
2022-10-29T13:17:50.785Z,69.92
2022-10-29T13:18:50.790Z,70.62
2022-10-29T13:19:50.767Z,71.02
2022-10-29T13:20:50.754Z,71.22
2022-10-29T13:21:50.741Z,68.83
2022-10-29T13:22:50.740Z,70.06
2022-10-29T13:23:50.731Z,70.36
2022-10-29T13:24:50.714Z,71.06
2022-10-29T13:25:50.704Z,70.06
2022-10-29T13:26:50.692Z,69.36
2022-10-29T13:27:50.698Z,71.06
2022-10-29T13:28:50.735Z,70.29
2022-10-29T13:29:50.653Z,70.59
2022-10-29T13:30:50.650Z,70.69
2022-10-29T13:31:50.634Z,69.46
2022-10-29T13:32:50.642Z,70.06
2022-10-29T13:33:50.617Z,70.83
2022-10-29T13:34:50.610Z,69.43
2022-10-29T13:35:50.593Z,70.42
2022-10-29T13:36:50.594Z,69.43
2022-10-29T13:37:50.587Z,69.13
2022-10-29T13:39:05.645Z,70.99
2022-10-29T13:39:50.574Z,69.20
2022-10-29T13:40:50.545Z,68.00
2022-10-29T13:41:50.532Z,67.93
2022-10-29T13:42:50.559Z,68.43
2022-10-29T13:43:50.509Z,67.23
2022-10-29T13:44:50.511Z,67.73
2022-10-29T13:45:50.495Z,68.03
2022-10-29T13:46:50.482Z,69.62
2022-10-29T13:47:50.480Z,68.53
2022-10-29T13:48:50.464Z,68.23
2022-10-29T13:49:50.457Z,69.53
2022-10-29T13:50:50.441Z,68.66
2022-10-29T13:51:50.462Z,68.93
2022-10-29T13:52:50.431Z,69.76
2022-10-29T13:53:50.406Z,71.06
2022-10-29T13:54:50.406Z,68.16
2022-10-29T13:55:50.388Z,69.56
2022-10-29T13:56:50.377Z,69.06
2022-10-29T13:57:50.366Z,69.13
2022-10-29T13:58:50.384Z,70.12
2022-10-29T13:59:50.345Z,70.42
2022-10-29T14:00:50.384Z,68.73
2022-10-29T14:01:50.492Z,68.53
2022-10-29T14:02:50.330Z,68.93
2022-10-29T14:03:50.303Z,69.73
2022-10-29T14:04:50.292Z,67.93
2022-10-29T14:05:50.281Z,67.23
2022-10-29T14:06:50.271Z,67.53
2022-10-29T14:07:50.282Z,68.23
2022-10-29T14:08:50.320Z,69.16
2022-10-29T14:09:50.238Z,68.86
2022-10-29T14:10:50.238Z,71.15
2022-10-29T14:11:50.219Z,69.86
2022-10-29T14:12:50.228Z,69.89
2022-10-29T14:13:50.192Z,69.69
2022-10-29T14:14:50.190Z,70.32
2022-10-29T14:15:50.173Z,70.12
2022-10-29T14:16:50.169Z,70.23
2022-10-29T14:17:50.178Z,70.72
2022-10-29T14:18:50.154Z,71.83
2022-10-29T14:19:50.136Z,74.22
2022-10-29T14:20:50.130Z,73.02
2022-10-29T14:21:50.113Z,73.52
2022-10-29T14:22:50.133Z,72.82
2022-10-29T14:23:50.095Z,73.22
2022-10-29T14:24:50.085Z,74.32
2022-10-29T14:25:50.070Z,73.62
2022-10-29T14:26:50.078Z,72.52
2022-10-29T14:27:50.065Z,73.42
2022-10-29T14:28:50.044Z,73.99
2022-10-29T14:29:53.039Z,73.92
2022-10-29T14:30:50.028Z,72.52
2022-10-29T14:31:50.003Z,74.02
2022-10-29T14:32:50.036Z,71.62
2022-10-29T14:33:49.983Z,72.19
2022-10-29T14:34:49.978Z,71.19
2022-10-29T14:35:49.966Z,71.99
2022-10-29T14:36:49.960Z,70.99
2022-10-29T14:37:49.961Z,72.89
2022-10-29T14:38:49.936Z,71.09
2022-10-29T14:39:57.877Z,70.59
2022-10-29T14:40:49.921Z,70.79
2022-10-29T14:41:49.902Z,72.52
2022-10-29T14:42:49.908Z,72.52
2022-10-29T14:43:49.890Z,71.62
2022-10-29T14:44:49.872Z,71.26
2022-10-29T14:45:49.863Z,72.45
2022-10-29T14:46:49.851Z,73.66
2022-10-29T14:47:49.853Z,73.09
2022-10-29T14:48:49.834Z,73.43
2022-10-29T14:49:49.824Z,73.43
2022-10-29T14:50:49.814Z,72.53
2022-10-29T14:51:49.796Z,72.63
2022-10-29T14:52:53.514Z,72.92
2022-10-29T14:53:49.809Z,72.53
2022-10-29T14:54:49.770Z,74.03
2022-10-29T14:55:49.754Z,73.13
2022-10-29T14:56:49.772Z,74.66
2022-10-29T14:57:49.752Z,74.87
2022-10-29T14:58:49.743Z,76.87
2022-10-29T14:59:49.709Z,75.10
2022-10-29T15:00:49.755Z,76.10
2022-10-29T15:01:50.355Z,75.60
2022-10-29T15:02:49.950Z,75.90
2022-10-29T15:03:49.670Z,76.50
2022-10-29T15:04:49.669Z,76.00
2022-10-29T15:05:49.702Z,76.10
2022-10-29T15:06:49.660Z,75.60
2022-10-29T15:07:49.646Z,75.60
2022-10-29T15:08:49.623Z,75.46
2022-10-29T15:09:49.604Z,75.56
2022-10-29T15:10:49.607Z,75.50
2022-10-29T15:11:49.585Z,75.90
2022-10-29T15:12:49.590Z,77.20
2022-10-29T15:13:49.566Z,76.80
2022-10-29T15:14:49.560Z,76.80
2022-10-29T15:15:49.545Z,77.00
2022-10-29T15:16:49.553Z,76.70
2022-10-29T15:17:49.558Z,76.70
2022-10-29T15:18:49.541Z,76.90
2022-10-29T15:19:49.522Z,77.10
2022-10-29T15:20:49.497Z,78.24
2022-10-29T15:21:49.482Z,78.54
2022-10-29T15:22:49.513Z,78.44
2022-10-29T15:23:49.493Z,78.34
2022-10-29T15:24:49.461Z,77.78
2022-10-29T15:25:49.454Z,78.74
2022-10-29T15:26:49.433Z,78.48
2022-10-29T15:27:49.418Z,78.88
2022-10-29T15:28:49.422Z,80.68
2022-10-29T15:29:49.403Z,78.61
2022-10-29T15:30:49.408Z,79.42
2022-10-29T15:31:49.415Z,80.82
2022-10-29T15:32:49.370Z,80.76
2022-10-29T15:33:49.392Z,81.06
2022-10-29T15:34:49.352Z,81.56
2022-10-29T15:35:49.346Z,82.17
2022-10-29T15:36:49.367Z,81.30
2022-10-29T15:37:49.318Z,82.70
2022-10-29T15:38:52.411Z,82.34
2022-10-29T15:39:49.293Z,81.94
2022-10-29T15:40:49.328Z,82.54
2022-10-29T15:41:49.268Z,82.48
2022-10-29T15:42:49.265Z,83.29
2022-10-29T15:43:49.250Z,84.09
2022-10-29T15:44:49.242Z,84.33
2022-10-29T15:45:49.227Z,83.93
2022-10-29T15:46:49.231Z,84.13
2022-10-29T15:47:49.207Z,84.97
2022-10-29T15:48:49.201Z,85.58
2022-10-29T15:49:49.187Z,84.47
2022-10-29T15:50:49.191Z,84.91
2022-10-29T15:51:49.166Z,85.42
2022-10-29T15:52:49.159Z,85.62
2022-10-29T15:53:49.140Z,85.31
2022-10-29T15:54:49.131Z,85.36
2022-10-29T15:55:49.156Z,85.86
2022-10-29T15:56:49.110Z,85.66
2022-10-29T15:57:49.098Z,83.65
2022-10-29T15:58:49.090Z,84.55
2022-10-29T15:59:49.144Z,83.61
2022-10-29T16:00:49.170Z,82.70
2022-10-29T16:01:49.144Z,82.70
2022-10-29T16:02:49.110Z,83.00
2022-10-29T16:03:49.047Z,81.46
2022-10-29T16:04:49.361Z,82.86
2022-10-29T16:05:49.026Z,82.06
2022-10-29T16:06:48.999Z,82.66
2022-10-29T16:07:49.032Z,83.37
2022-10-29T16:08:48.982Z,83.81
2022-10-29T16:09:48.964Z,84.11
2022-10-29T16:10:49.011Z,84.85
2022-10-29T16:11:48.939Z,84.55
2022-10-29T16:12:48.933Z,84.49
2022-10-29T16:13:54.809Z,85.20
2022-10-29T16:14:48.919Z,85.70
2022-10-29T16:15:48.914Z,85.40
2022-10-29T16:16:48.895Z,86.65
2022-10-29T16:17:48.876Z,83.99
2022-10-29T16:18:48.871Z,84.80
2022-10-29T16:19:48.853Z,82.34
2022-10-29T16:20:48.860Z,83.31
2022-10-29T16:21:48.831Z,83.11
2022-10-29T16:22:48.823Z,83.25
2022-10-29T16:23:48.816Z,83.54
2022-10-29T16:24:48.803Z,83.25
2022-10-29T16:25:48.802Z,82.84
2022-10-29T16:26:48.795Z,83.95
2022-10-29T16:27:48.774Z,83.04
2022-10-29T16:28:48.764Z,83.34
2022-10-29T16:29:48.744Z,83.54
2022-10-29T16:30:48.749Z,83.34
2022-10-29T16:31:48.735Z,83.04
2022-10-29T16:32:48.765Z,83.48
2022-10-29T16:33:48.705Z,82.64
2022-10-29T16:34:48.702Z,81.53
2022-10-29T16:35:48.701Z,82.40
2022-10-29T16:36:48.680Z,82.10
2022-10-29T16:37:48.670Z,82.54
2022-10-29T16:38:48.665Z,82.94
2022-10-29T16:39:48.646Z,82.74
2022-10-29T16:40:48.659Z,83.08
2022-10-29T16:41:48.621Z,82.84
2022-10-29T16:42:48.620Z,81.73
2022-10-29T16:43:48.600Z,81.73
2022-10-29T16:44:48.598Z,81.63
2022-10-29T16:45:48.657Z,80.39
2022-10-29T16:46:48.588Z,80.19
2022-10-29T16:47:48.563Z,80.05
2022-10-29T16:48:48.555Z,78.94
2022-10-29T16:49:48.541Z,78.50
2022-10-29T16:50:48.540Z,78.50
2022-10-29T16:51:48.547Z,77.70
2022-10-29T16:52:50.236Z,77.90
2022-10-29T16:53:48.502Z,77.39
2022-10-29T16:54:48.496Z,76.89
2022-10-29T16:55:48.485Z,75.95
2022-10-29T16:56:48.492Z,75.55
2022-10-29T16:57:48.461Z,76.35
2022-10-29T16:58:48.449Z,76.35
2022-10-29T16:59:48.444Z,75.45
2022-10-29T17:00:48.598Z,75.51
2022-10-29T17:01:54.474Z,76.21
2022-10-29T17:02:48.446Z,77.46
2022-10-29T17:03:48.458Z,76.29
2022-10-29T17:04:48.444Z,76.05
2022-10-29T17:05:48.403Z,75.01
2022-10-29T17:06:48.419Z,74.51
2022-10-29T17:07:48.383Z,74.31
2022-10-29T17:08:48.381Z,73.87
2022-10-29T17:09:48.369Z,74.07
2022-10-29T17:10:48.369Z,73.87
2022-10-29T17:11:48.379Z,73.87
2022-10-29T17:12:48.373Z,75.11
2022-10-29T17:13:48.321Z,74.31
2022-10-29T17:14:48.352Z,74.11
2022-10-29T17:15:48.300Z,74.07
2022-10-29T17:16:48.328Z,74.01
2022-10-29T17:17:48.275Z,73.91
2022-10-29T17:18:48.282Z,74.11
2022-10-29T17:19:48.265Z,73.81
2022-10-29T17:20:48.249Z,73.71
2022-10-29T17:21:48.271Z,73.91
2022-10-29T17:22:48.243Z,73.50
2022-10-29T17:23:48.230Z,73.30
2022-10-29T17:24:48.207Z,74.21
2022-10-29T17:25:48.253Z,74.31
2022-10-29T17:26:48.195Z,74.01
2022-10-29T17:27:48.179Z,73.30
2022-10-29T17:28:48.162Z,73.61
2022-10-29T17:29:48.149Z,74.01
2022-10-29T17:30:48.135Z,73.50
2022-10-29T17:31:48.151Z,74.61
2022-10-29T17:32:48.117Z,75.85
2022-10-29T17:33:48.119Z,74.98
2022-10-29T17:34:48.099Z,75.49
2022-10-29T17:35:48.090Z,76.59
2022-10-29T17:36:48.090Z,76.63
2022-10-29T17:37:48.072Z,76.93
2022-10-29T17:38:48.062Z,77.73